createdAt,value
2019-03-20T00:00:36.274Z,69.86
2019-03-20T00:03:05.787Z,69.64
2019-03-20T00:05:35.034Z,69.39
2019-03-20T00:08:04.222Z,69.50
2019-03-20T00:10:33.497Z,69.70
2019-03-20T00:13:02.789Z,69.93
2019-03-20T00:15:32.082Z,69.86
2019-03-20T00:18:01.312Z,69.77
2019-03-20T00:20:30.594Z,70.01
2019-03-20T00:22:59.795Z,69.98
2019-03-20T00:25:29.022Z,69.96
2019-03-20T00:27:58.219Z,69.89
2019-03-20T00:30:27.488Z,70.07
2019-03-20T00:32:56.762Z,70.13
2019-03-20T00:35:25.982Z,70.16
2019-03-20T00:37:55.262Z,70.14
2019-03-20T00:40:24.486Z,70.10
2019-03-20T00:42:53.773Z,70.12
2019-03-20T00:45:22.983Z,70.02
2019-03-20T00:47:52.264Z,70.26
2019-03-20T00:50:21.587Z,70.09
2019-03-20T00:52:50.865Z,69.82
2019-03-20T00:55:20.064Z,69.88
2019-03-20T00:57:49.280Z,69.93
2019-03-20T01:00:18.583Z,69.75
2019-03-20T01:02:47.888Z,69.78
2019-03-20T01:05:17.183Z,69.94
2019-03-20T01:07:46.398Z,69.87
2019-03-20T01:10:17.191Z,69.96
2019-03-20T01:12:46.522Z,70.16
2019-03-20T01:15:15.719Z,70.16
2019-03-20T01:17:45.028Z,70.62
2019-03-20T01:20:15.797Z,70.59
2019-03-20T01:22:45.029Z,70.69
2019-03-20T01:25:14.777Z,70.72
2019-03-20T01:27:43.949Z,70.88
2019-03-20T01:30:33.599Z,71.14
2019-03-20T01:33:04.380Z,71.01
2019-03-20T01:35:33.606Z,71.17
2019-03-20T01:38:02.809Z,70.92
2019-03-20T01:40:31.999Z,70.98
2019-03-20T01:43:01.178Z,70.73
2019-03-20T01:45:30.371Z,70.57
2019-03-20T01:47:59.582Z,70.59
2019-03-20T01:50:28.905Z,70.58
2019-03-20T01:52:58.110Z,70.59
2019-03-20T01:55:27.325Z,70.64
2019-03-20T01:57:56.541Z,70.45
2019-03-20T02:00:25.839Z,70.20
2019-03-20T02:02:55.065Z,70.79
2019-03-20T02:05:34.698Z,70.90
2019-03-20T02:07:53.559Z,70.95
2019-03-20T02:10:22.817Z,71.18
2019-03-20T02:12:51.999Z,71.06
2019-03-20T02:15:21.191Z,71.20
2019-03-20T02:17:50.402Z,70.96
2019-03-20T02:20:19.612Z,71.11
2019-03-20T02:22:48.819Z,71.19
2019-03-20T02:25:18.030Z,71.31
2019-03-20T02:27:47.246Z,71.40
2019-03-20T02:30:16.574Z,71.49
2019-03-20T02:32:45.789Z,71.84
2019-03-20T02:35:14.987Z,71.94
2019-03-20T02:37:44.205Z,71.86
2019-03-20T02:40:13.437Z,71.90
2019-03-20T02:42:42.633Z,71.88
2019-03-20T02:45:12.290Z,72.38
2019-03-20T02:47:41.581Z,72.23
2019-03-20T02:50:10.795Z,72.57
2019-03-20T02:52:40.066Z,72.53
2019-03-20T02:55:09.320Z,72.45
2019-03-20T02:57:38.619Z,72.41
2019-03-20T03:00:09.668Z,72.18
2019-03-20T03:02:38.961Z,72.35
2019-03-20T03:05:08.678Z,72.55
2019-03-20T03:07:38.025Z,72.27
2019-03-20T03:10:08.360Z,72.60
2019-03-20T03:12:37.643Z,72.49
2019-03-20T03:15:06.913Z,72.44
2019-03-20T03:17:36.122Z,72.66
2019-03-20T03:20:05.707Z,72.64
2019-03-20T03:22:34.925Z,72.63
2019-03-20T03:25:04.755Z,72.72
2019-03-20T03:27:33.953Z,72.62
2019-03-20T03:30:03.283Z,72.56
2019-03-20T03:32:32.556Z,72.64
2019-03-20T03:35:01.777Z,72.24
2019-03-20T03:37:30.994Z,72.20
2019-03-20T03:40:00.604Z,72.02
2019-03-20T03:42:29.445Z,72.28
2019-03-20T03:44:58.631Z,72.20
2019-03-20T03:47:27.817Z,72.60
2019-03-20T03:49:57.088Z,72.53
2019-03-20T03:52:26.288Z,72.78
2019-03-20T03:54:55.506Z,73.06
2019-03-20T03:57:24.711Z,73.28
2019-03-20T03:59:53.936Z,73.41
2019-03-20T04:02:23.162Z,73.41
2019-03-20T04:04:52.364Z,73.70
2019-03-20T04:07:23.715Z,73.84
2019-03-20T04:09:50.787Z,74.14
2019-03-20T04:12:19.962Z,74.19
2019-03-20T04:14:49.151Z,74.21
2019-03-20T04:17:26.516Z,74.14
2019-03-20T04:19:55.763Z,74.13
2019-03-20T04:22:24.963Z,73.96
2019-03-20T04:24:54.208Z,74.13
2019-03-20T04:27:23.445Z,74.00
2019-03-20T04:29:52.784Z,74.02
2019-03-20T04:32:21.995Z,74.14
2019-03-20T04:34:51.216Z,73.94
2019-03-20T04:37:20.390Z,73.70
2019-03-20T04:39:49.614Z,73.78
2019-03-20T04:42:18.940Z,73.76
2019-03-20T04:44:48.153Z,73.80
2019-03-20T04:47:17.404Z,73.84
2019-03-20T04:49:46.741Z,73.56
2019-03-20T04:52:16.021Z,73.63
2019-03-20T04:54:47.902Z,73.68
2019-03-20T04:57:16.996Z,73.86
2019-03-20T04:59:46.302Z,73.65
2019-03-20T05:02:15.572Z,73.83
2019-03-20T05:04:44.801Z,73.80
2019-03-20T05:07:14.068Z,73.89
2019-03-20T05:09:43.293Z,73.54
2019-03-20T05:12:12.582Z,73.77
2019-03-20T05:14:41.794Z,73.70
2019-03-20T05:17:10.992Z,73.50
2019-03-20T05:19:40.245Z,73.69
2019-03-20T05:22:09.451Z,73.33
2019-03-20T05:24:38.702Z,73.48
2019-03-20T05:27:07.944Z,73.60
2019-03-20T05:29:37.145Z,73.69
2019-03-20T05:32:06.343Z,73.56
2019-03-20T05:34:35.578Z,73.51
2019-03-20T05:37:10.232Z,73.65
2019-03-20T05:39:34.094Z,73.26
2019-03-20T05:42:03.380Z,73.44
2019-03-20T05:44:32.682Z,73.23
2019-03-20T05:47:01.995Z,73.39
2019-03-20T05:49:31.286Z,73.10
2019-03-20T05:52:00.485Z,73.25
2019-03-20T05:54:29.793Z,72.92
2019-03-20T05:56:58.981Z,73.02
2019-03-20T05:59:28.244Z,72.74
2019-03-20T06:01:57.443Z,72.50
2019-03-20T06:04:26.661Z,72.31
2019-03-20T06:06:55.868Z,72.26
2019-03-20T06:09:25.106Z,72.38
2019-03-20T06:11:54.364Z,72.09
2019-03-20T06:14:23.602Z,72.17
2019-03-20T06:16:52.788Z,71.93
2019-03-20T06:19:22.038Z,71.59
2019-03-20T06:21:51.220Z,71.56
2019-03-20T06:24:20.560Z,71.34
2019-03-20T06:26:49.775Z,71.20
2019-03-20T06:29:20.183Z,70.74
2019-03-20T06:31:48.209Z,70.57
2019-03-20T06:34:17.389Z,70.25
2019-03-20T06:36:46.637Z,70.54
2019-03-20T06:39:15.908Z,69.90
2019-03-20T06:41:45.178Z,70.57
2019-03-20T06:44:14.459Z,68.96
2019-03-20T06:46:43.698Z,67.83
2019-03-20T06:49:12.919Z,67.45
2019-03-20T06:51:42.132Z,67.15
2019-03-20T06:54:11.463Z,67.34
2019-03-20T06:56:40.717Z,67.62
2019-03-20T07:00:10.706Z,67.35
2019-03-20T07:02:42.930Z,67.47
2019-03-20T07:05:54.173Z,67.11
2019-03-20T07:08:24.849Z,67.07
2019-03-20T07:11:05.996Z,66.61
2019-03-20T07:13:35.287Z,66.50
2019-03-20T07:16:04.848Z,66.16
2019-03-20T07:18:34.077Z,66.13
2019-03-20T07:21:03.309Z,65.69
2019-03-20T07:23:32.634Z,65.12
2019-03-20T07:26:01.852Z,64.83
2019-03-20T07:28:31.135Z,64.67
2019-03-20T07:31:00.465Z,64.52
2019-03-20T07:33:29.768Z,64.46
2019-03-20T07:35:59.285Z,64.00
2019-03-20T07:38:28.465Z,63.13
2019-03-20T07:40:57.717Z,62.80
2019-03-20T07:43:27.212Z,61.76
2019-03-20T07:45:56.157Z,61.33
2019-03-20T07:48:25.445Z,60.71
2019-03-20T07:50:54.766Z,60.88
2019-03-20T07:53:23.997Z,61.25
2019-03-20T07:55:53.251Z,61.02
2019-03-20T07:58:22.587Z,61.11
2019-03-20T08:00:51.799Z,61.11
2019-03-20T08:03:21.092Z,61.10
2019-03-20T08:05:50.375Z,60.84
2019-03-20T08:08:19.795Z,61.09
2019-03-20T08:10:49.057Z,61.35
2019-03-20T08:13:18.317Z,60.92
2019-03-20T08:15:47.691Z,59.86
2019-03-20T08:18:17.086Z,59.13
2019-03-20T08:20:46.397Z,57.26
2019-03-20T08:23:15.679Z,57.44
2019-03-20T08:25:52.340Z,57.59
2019-03-20T08:28:15.287Z,58.41
2019-03-20T08:30:44.619Z,58.19
2019-03-20T08:33:13.865Z,58.68
2019-03-20T08:35:43.168Z,58.00
2019-03-20T08:38:18.320Z,58.35
2019-03-20T08:40:41.868Z,55.66
2019-03-20T08:43:11.107Z,54.82
2019-03-20T08:45:40.334Z,55.66
2019-03-20T08:48:09.625Z,56.28
2019-03-20T08:50:38.863Z,56.28
2019-03-20T08:53:08.152Z,55.28
2019-03-20T08:55:37.409Z,55.28
2019-03-20T08:58:06.683Z,55.07
2019-03-20T09:00:36.008Z,55.82
2019-03-20T09:03:05.332Z,55.41
2019-03-20T09:05:34.621Z,55.41
2019-03-20T09:08:03.935Z,54.88
2019-03-20T09:10:33.238Z,55.23
2019-03-20T09:13:02.507Z,55.08
2019-03-20T09:15:31.837Z,55.08
2019-03-20T09:18:01.111Z,54.33
2019-03-20T09:20:30.359Z,54.55
2019-03-20T09:22:59.713Z,54.19
2019-03-20T09:25:28.934Z,54.16
2019-03-20T09:27:58.126Z,52.67
2019-03-20T09:30:27.391Z,52.67
2019-03-20T09:32:56.609Z,52.79
2019-03-20T09:35:25.809Z,51.33
2019-03-20T09:37:55.039Z,50.56
2019-03-20T09:40:24.318Z,49.96
2019-03-20T09:42:53.540Z,49.45
2019-03-20T09:45:22.769Z,49.92
2019-03-20T09:47:52.025Z,49.02
2019-03-20T09:50:21.313Z,48.92
2019-03-20T09:52:50.614Z,49.47
2019-03-20T09:55:19.959Z,48.57
2019-03-20T09:57:49.209Z,47.37
2019-03-20T10:00:22.653Z,46.91
2019-03-20T10:02:51.881Z,45.56
2019-03-20T10:05:21.147Z,45.78
2019-03-20T10:07:50.409Z,45.33
2019-03-20T10:10:20.749Z,44.49
2019-03-20T10:12:49.977Z,45.54
2019-03-20T10:15:19.361Z,45.50
2019-03-20T10:17:48.644Z,45.95
2019-03-20T10:20:18.755Z,47.31
2019-03-20T10:22:47.976Z,45.29
2019-03-20T10:25:17.221Z,45.34
2019-03-20T10:27:46.462Z,43.43
2019-03-20T10:30:17.701Z,43.41
2019-03-20T10:32:46.928Z,43.64
2019-03-20T10:35:16.208Z,42.25
2019-03-20T10:37:45.486Z,42.77
2019-03-20T10:40:16.647Z,44.05
2019-03-20T10:42:45.978Z,44.82
2019-03-20T10:45:15.262Z,45.10
2019-03-20T10:47:44.575Z,45.14
2019-03-20T10:50:15.917Z,45.01
2019-03-20T10:52:45.223Z,46.01
2019-03-20T10:55:14.589Z,46.03
2019-03-20T10:57:43.902Z,44.10
2019-03-20T11:00:17.929Z,41.34
2019-03-20T11:02:47.171Z,40.42
2019-03-20T11:05:16.617Z,40.85
2019-03-20T11:07:45.889Z,40.90
2019-03-20T11:10:19.329Z,41.74
2019-03-20T11:12:48.623Z,43.02
2019-03-20T11:15:17.932Z,40.78
2019-03-20T11:17:47.139Z,40.88
2019-03-20T11:20:16.821Z,40.47
2019-03-20T11:22:46.257Z,39.86
2019-03-20T11:25:16.646Z,39.91
2019-03-20T11:27:45.989Z,38.95
2019-03-20T11:30:22.635Z,39.58
2019-03-20T11:32:51.880Z,41.64
2019-03-20T11:35:21.178Z,42.45
2019-03-20T11:37:50.435Z,43.03
2019-03-20T11:40:24.722Z,43.89
2019-03-20T11:42:53.924Z,44.47
2019-03-20T11:45:23.709Z,45.16
2019-03-20T11:47:52.459Z,45.72
2019-03-20T11:50:30.053Z,46.45
2019-03-20T11:52:59.235Z,46.66
2019-03-20T11:55:28.506Z,46.77
2019-03-20T11:57:57.693Z,46.77
2019-03-20T12:00:26.963Z,47.77
2019-03-20T12:02:56.249Z,48.33
2019-03-20T12:05:25.569Z,48.89
2019-03-20T12:07:54.762Z,48.82
2019-03-20T12:10:24.043Z,49.28
2019-03-20T12:12:53.355Z,49.56
2019-03-20T12:15:22.629Z,50.07
2019-03-20T12:17:51.859Z,50.92
2019-03-20T12:20:21.100Z,49.80
2019-03-20T12:22:50.351Z,49.78
2019-03-20T12:25:21.605Z,50.21
2019-03-20T12:27:50.838Z,50.30
2019-03-20T12:30:21.709Z,49.90
2019-03-20T12:32:50.963Z,49.33
2019-03-20T12:35:20.229Z,49.64
2019-03-20T12:37:49.507Z,50.33
2019-03-20T12:40:20.819Z,49.71
2019-03-20T12:42:50.090Z,50.31
2019-03-20T12:45:20.615Z,49.95
2019-03-20T12:47:49.849Z,50.57
2019-03-20T12:50:19.107Z,50.00
2019-03-20T12:52:48.399Z,50.00
2019-03-20T12:55:17.713Z,49.75
2019-03-20T12:57:47.059Z,49.34
2019-03-20T13:00:18.059Z,49.39
2019-03-20T13:02:47.321Z,49.29
2019-03-20T13:05:16.584Z,49.36
2019-03-20T13:07:45.856Z,49.25
2019-03-20T13:10:16.575Z,49.17
2019-03-20T13:12:46.028Z,49.00
2019-03-20T13:15:17.261Z,48.86
2019-03-20T13:17:46.557Z,48.79
2019-03-20T13:20:15.855Z,49.09
2019-03-20T13:22:46.475Z,49.01
2019-03-20T13:25:16.028Z,49.54
2019-03-20T13:27:45.246Z,48.66
2019-03-20T13:30:25.767Z,49.13
2019-03-20T13:32:55.026Z,49.27
2019-03-20T13:35:24.593Z,49.90
2019-03-20T13:37:53.807Z,50.12
2019-03-20T13:40:23.068Z,50.08
2019-03-20T13:42:52.365Z,49.99
2019-03-20T13:45:21.765Z,50.10
2019-03-20T13:47:51.084Z,50.44
2019-03-20T13:50:20.584Z,50.58
2019-03-20T13:52:49.899Z,50.99
2019-03-20T13:55:19.209Z,51.02
2019-03-20T13:57:48.426Z,51.19
2019-03-20T14:00:19.304Z,50.97
2019-03-20T14:02:48.545Z,51.22
2019-03-20T14:05:17.807Z,51.42
2019-03-20T14:07:47.130Z,51.36
2019-03-20T14:10:25.106Z,51.66
2019-03-20T14:12:47.162Z,51.45
2019-03-20T14:15:16.498Z,51.23
2019-03-20T14:17:45.743Z,50.96
2019-03-20T14:20:17.215Z,51.02
2019-03-20T14:22:46.534Z,50.22
2019-03-20T14:25:15.805Z,50.07
2019-03-20T14:27:45.104Z,49.56
2019-03-20T14:30:22.291Z,49.76
2019-03-20T14:32:51.523Z,49.44
2019-03-20T14:35:20.777Z,49.40
2019-03-20T14:37:50.100Z,49.52
2019-03-20T14:40:21.499Z,49.89
2019-03-20T14:42:50.951Z,50.01
2019-03-20T14:45:20.097Z,49.73
2019-03-20T14:47:49.454Z,49.85
2019-03-20T14:50:20.544Z,50.19
2019-03-20T14:52:49.781Z,50.45
2019-03-20T14:55:19.094Z,50.46
2019-03-20T14:57:48.355Z,50.85
2019-03-20T15:00:19.604Z,50.74
2019-03-20T15:02:48.850Z,50.76
2019-03-20T15:05:18.137Z,50.60
2019-03-20T15:07:47.350Z,50.83
2019-03-20T15:10:17.843Z,51.02
2019-03-20T15:12:47.083Z,51.17
2019-03-20T15:15:31.559Z,51.47
2019-03-20T15:18:00.775Z,51.76
2019-03-20T15:20:30.083Z,52.13
2019-03-20T15:22:59.373Z,52.38
2019-03-20T15:25:28.613Z,52.66
2019-03-20T15:27:57.991Z,52.96
2019-03-20T15:30:29.524Z,53.23
2019-03-20T15:32:56.523Z,53.39
2019-03-20T15:35:25.809Z,53.39
2019-03-20T15:37:58.235Z,53.59
2019-03-20T15:40:27.504Z,53.37
2019-03-20T15:42:56.739Z,53.45
2019-03-20T15:45:26.095Z,53.56
2019-03-20T15:47:55.310Z,53.40
2019-03-20T15:50:24.609Z,53.33
2019-03-20T15:52:53.829Z,53.25
2019-03-20T15:55:25.535Z,53.40
2019-03-20T15:57:54.797Z,53.72
2019-03-20T16:00:24.018Z,53.73
2019-03-20T16:02:55.402Z,53.83
2019-03-20T16:05:24.609Z,53.60
2019-03-20T16:07:53.906Z,53.39
2019-03-20T16:10:23.147Z,53.62
2019-03-20T16:12:52.468Z,53.83
2019-03-20T16:15:21.702Z,53.65
2019-03-20T16:17:50.927Z,54.07
2019-03-20T16:20:20.405Z,54.10
2019-03-20T16:22:49.735Z,54.28
2019-03-20T16:25:18.991Z,53.94
2019-03-20T16:27:48.329Z,54.10
2019-03-20T16:30:19.133Z,54.33
2019-03-20T16:32:48.389Z,54.55
2019-03-20T16:35:17.652Z,54.65
2019-03-20T16:37:46.995Z,54.85
2019-03-20T16:40:21.113Z,54.86
2019-03-20T16:42:50.497Z,54.96
2019-03-20T16:45:22.111Z,54.99
2019-03-20T16:47:51.324Z,55.53
2019-03-20T16:50:20.529Z,55.35
2019-03-20T16:52:49.826Z,55.33
2019-03-20T16:55:19.110Z,58.52
2019-03-20T16:57:48.347Z,55.60
2019-03-20T17:00:25.521Z,55.25
2019-03-20T17:02:54.781Z,55.39
2019-03-20T17:05:23.995Z,55.58
2019-03-20T17:07:53.413Z,56.04
2019-03-20T17:10:27.491Z,55.90
2019-03-20T17:12:56.724Z,56.24
2019-03-20T17:15:26.635Z,56.36
2019-03-20T17:17:55.896Z,56.65
2019-03-20T17:20:25.127Z,56.56
2019-03-20T17:22:54.629Z,56.75
2019-03-20T17:25:23.945Z,56.91
2019-03-20T17:27:53.169Z,56.98
2019-03-20T17:30:24.588Z,57.37
2019-03-20T17:32:53.882Z,57.46
2019-03-20T17:35:23.203Z,57.50
2019-03-20T17:37:52.487Z,57.45
2019-03-20T17:40:21.919Z,57.63
2019-03-20T17:42:51.133Z,57.76
2019-03-20T17:45:20.399Z,57.79
2019-03-20T17:47:49.688Z,57.87
2019-03-20T17:50:20.925Z,58.06
2019-03-20T17:52:50.236Z,58.36
2019-03-20T17:55:19.479Z,59.07
2019-03-20T17:57:48.663Z,58.89
2019-03-20T18:00:31.639Z,59.22
2019-03-20T18:03:01.165Z,59.51
2019-03-20T18:05:30.483Z,59.63
2019-03-20T18:07:59.765Z,59.75
2019-03-20T18:10:29.026Z,60.07
2019-03-20T18:12:58.261Z,60.17
2019-03-20T18:15:27.474Z,60.34
2019-03-20T18:17:56.859Z,60.54
2019-03-20T18:20:26.189Z,60.62
2019-03-20T18:22:55.589Z,60.83
2019-03-20T18:25:24.889Z,61.18
2019-03-20T18:27:54.178Z,61.36
2019-03-20T18:30:23.725Z,61.37
2019-03-20T18:32:53.026Z,61.44
2019-03-20T18:35:22.261Z,61.44
2019-03-20T18:37:53.898Z,61.71
2019-03-20T18:40:21.323Z,62.02
2019-03-20T18:42:50.648Z,61.98
2019-03-20T18:45:20.136Z,62.14
2019-03-20T18:47:49.400Z,62.28
2019-03-20T18:50:18.771Z,62.50
2019-03-20T18:52:48.201Z,62.43
2019-03-20T18:55:17.498Z,62.35
2019-03-20T18:57:46.722Z,62.78
2019-03-20T19:00:18.095Z,62.81
2019-03-20T19:02:47.385Z,62.97
2019-03-20T19:05:22.600Z,63.03
2019-03-20T19:07:51.890Z,63.42
2019-03-20T19:10:21.151Z,63.41
2019-03-20T19:12:50.364Z,63.66
2019-03-20T19:15:19.589Z,63.77
2019-03-20T19:17:48.788Z,63.94
2019-03-20T19:20:19.903Z,64.15
2019-03-20T19:22:47.260Z,64.54
2019-03-20T19:25:16.609Z,64.54
2019-03-20T19:27:45.797Z,64.52
2019-03-20T19:30:17.251Z,64.93
2019-03-20T19:32:46.497Z,65.26
2019-03-20T19:35:15.699Z,65.57
2019-03-20T19:37:44.939Z,65.63
2019-03-20T19:40:14.289Z,65.99
2019-03-20T19:42:43.547Z,66.24
2019-03-20T19:45:12.855Z,66.37
2019-03-20T19:47:42.063Z,66.29
2019-03-20T19:50:12.677Z,66.35
2019-03-20T19:52:42.347Z,66.50
2019-03-20T19:55:11.711Z,66.64
2019-03-20T19:57:40.985Z,66.95
2019-03-20T20:00:12.939Z,66.97
2019-03-20T20:02:42.137Z,67.27
2019-03-20T20:05:15.750Z,67.37
2019-03-20T20:07:40.664Z,67.40
2019-03-20T20:10:10.075Z,67.56
2019-03-20T20:12:39.299Z,67.74
2019-03-20T20:15:11.719Z,67.76
2019-03-20T20:17:41.128Z,67.76
2019-03-20T20:20:12.449Z,68.51
2019-03-20T20:22:41.773Z,68.31
2019-03-20T20:25:11.106Z,68.40
2019-03-20T20:27:40.401Z,68.41
2019-03-20T20:30:12.357Z,68.40
2019-03-20T20:32:41.567Z,68.18
2019-03-20T20:35:11.047Z,68.11
2019-03-20T20:37:40.262Z,68.52
2019-03-20T20:40:11.689Z,68.47
2019-03-20T20:42:43.282Z,68.83
2019-03-20T20:45:10.157Z,69.17
2019-03-20T20:47:39.374Z,69.59
2019-03-20T20:50:08.916Z,69.67
2019-03-20T20:52:38.207Z,69.99
2019-03-20T20:55:08.407Z,70.23
2019-03-20T20:57:37.765Z,70.29
2019-03-20T21:00:11.235Z,70.72
2019-03-20T21:02:40.452Z,70.57
2019-03-20T21:05:09.647Z,70.83
2019-03-20T21:07:38.957Z,71.00
2019-03-20T21:10:09.062Z,71.15
2019-03-20T21:12:38.328Z,71.15
2019-03-20T21:15:16.563Z,71.38
2019-03-20T21:18:09.332Z,71.12
2019-03-20T21:20:39.586Z,71.27
2019-03-20T21:23:49.093Z,71.56
2019-03-20T21:26:19.823Z,71.52
2019-03-20T21:29:16.027Z,71.59
2019-03-20T21:31:53.856Z,71.70
2019-03-20T21:35:00.012Z,72.01
2019-03-20T21:38:01.108Z,71.82
2019-03-20T21:40:32.942Z,71.82
2019-03-20T21:43:39.305Z,71.66
2019-03-20T21:46:48.109Z,71.56
2019-03-20T21:49:18.500Z,71.84
2019-03-20T21:51:48.874Z,71.58
2019-03-20T21:55:12.330Z,71.58
2019-03-20T21:58:08.798Z,71.63
2019-03-20T22:01:18.887Z,71.60
2019-03-20T22:03:49.295Z,71.67
2019-03-20T22:07:21.540Z,71.72
2019-03-20T22:10:41.744Z,71.67
2019-03-20T22:13:31.010Z,71.87
2019-03-20T22:16:23.529Z,72.05
2019-03-20T22:19:33.505Z,72.01
2019-03-20T22:22:55.721Z,72.01
2019-03-20T22:25:52.225Z,71.86
2019-03-20T22:29:07.965Z,71.79
2019-03-20T22:31:40.765Z,71.95
2019-03-20T22:34:41.299Z,71.95
2019-03-20T22:37:11.607Z,71.84
2019-03-20T22:40:34.397Z,72.07
2019-03-20T22:43:17.207Z,72.45
2019-03-20T22:46:34.099Z,72.45
2019-03-20T22:50:01.078Z,72.29
2019-03-20T22:53:05.885Z,72.45
2019-03-20T22:55:58.137Z,72.50
2019-03-20T22:58:42.510Z,72.49
2019-03-20T23:01:19.584Z,72.61
2019-03-20T23:03:54.822Z,72.61
2019-03-20T23:06:25.128Z,72.67
2019-03-20T23:08:55.398Z,72.73
2019-03-20T23:11:25.693Z,72.55
2019-03-20T23:13:56.005Z,72.77
2019-03-20T23:16:26.290Z,72.94
2019-03-20T23:18:56.526Z,72.83
2019-03-20T23:21:26.804Z,72.97
2019-03-20T23:23:57.084Z,73.09
2019-03-20T23:26:27.382Z,73.08
2019-03-20T23:28:57.624Z,73.04
2019-03-20T23:31:27.929Z,73.09
2019-03-20T23:33:58.291Z,72.99
2019-03-20T23:36:28.942Z,73.17
2019-03-20T23:38:59.244Z,73.21
2019-03-20T23:41:29.501Z,73.17
2019-03-20T23:43:59.796Z,73.22
2019-03-20T23:46:30.096Z,73.19
2019-03-20T23:49:18.384Z,73.28
2019-03-20T23:51:48.677Z,73.29
2019-03-20T23:54:22.298Z,73.36
2019-03-20T23:56:52.582Z,73.45
2019-03-20T23:59:22.884Z,73.37
